createdAt,value
2018-11-28T00:00:59.495Z,-2.30
2018-11-28T00:03:34.098Z,-2.30
2018-11-28T00:06:08.929Z,-2.40
2018-11-28T00:08:43.821Z,-2.40
2018-11-28T00:11:18.476Z,-2.50
2018-11-28T00:13:53.313Z,-2.40
2018-11-28T00:16:28.116Z,-2.40
2018-11-28T00:19:02.660Z,-2.40
2018-11-28T00:21:37.193Z,-2.30
2018-11-28T00:24:11.761Z,-2.40
2018-11-28T00:26:46.483Z,-2.50
2018-11-28T00:29:20.960Z,-2.50
2018-11-28T00:31:55.763Z,-2.40
2018-11-28T00:34:30.390Z,-2.40
2018-11-28T00:37:04.944Z,-2.50
2018-11-28T00:39:39.607Z,-2.50
2018-11-28T00:42:14.020Z,-2.50
2018-11-28T00:44:48.959Z,-2.50
2018-11-28T00:47:23.724Z,-2.50
2018-11-28T00:49:58.413Z,-2.50
2018-11-28T00:52:34.009Z,-2.50
2018-11-28T00:55:11.084Z,-2.50
2018-11-28T00:57:45.913Z,-2.60
2018-11-28T01:00:23.498Z,-2.60
2018-11-28T01:02:58.309Z,-2.60
2018-11-28T01:05:33.501Z,-2.60
2018-11-28T01:08:08.469Z,-2.60
2018-11-28T01:10:43.585Z,-2.50
2018-11-28T01:13:18.609Z,-2.60
2018-11-28T01:15:53.579Z,-2.60
2018-11-28T01:18:28.407Z,-2.60
2018-11-28T01:21:02.887Z,-2.60
2018-11-28T01:23:37.468Z,-2.50
2018-11-28T01:26:12.052Z,-2.60
2018-11-28T01:28:46.826Z,-2.60
2018-11-28T01:31:21.473Z,-2.60
2018-11-28T01:33:56.122Z,-2.60
2018-11-28T01:36:31.234Z,-2.60
2018-11-28T01:39:07.417Z,-2.60
2018-11-28T01:41:42.797Z,-2.60
2018-11-28T01:44:18.338Z,-2.60
2018-11-28T01:46:53.396Z,-2.60
2018-11-28T01:49:28.018Z,-2.60
2018-11-28T01:52:02.824Z,-2.60
2018-11-28T01:54:37.744Z,-2.60
2018-11-28T01:57:13.408Z,-2.60
2018-11-28T01:59:48.270Z,-2.60
2018-11-28T02:02:23.150Z,-2.60
2018-11-28T02:04:57.705Z,-2.60
2018-11-28T02:07:32.360Z,-2.50
2018-11-28T02:10:12.037Z,-2.50
2018-11-28T02:12:46.681Z,-2.50
2018-11-28T02:15:25.403Z,-2.50
2018-11-28T02:18:00.088Z,-2.50
2018-11-28T02:20:34.866Z,-2.50
2018-11-28T02:23:09.855Z,-2.40
2018-11-28T02:25:46.898Z,-2.40
2018-11-28T02:28:21.565Z,-2.40
2018-11-28T02:30:56.518Z,-2.50
2018-11-28T02:33:31.101Z,-2.50
2018-11-28T02:36:05.581Z,-2.50
2018-11-28T02:38:40.234Z,-2.50
2018-11-28T02:41:15.057Z,-2.50
2018-11-28T02:43:49.665Z,-2.50
2018-11-28T02:46:30.361Z,-2.40
2018-11-28T02:49:05.900Z,-2.40
2018-11-28T02:51:40.861Z,-2.40
2018-11-28T02:54:15.813Z,-2.40
2018-11-28T02:56:50.628Z,-2.50
2018-11-28T02:59:25.349Z,-2.50
2018-11-28T03:02:00.100Z,-2.60
2018-11-28T03:04:34.631Z,-2.60
2018-11-28T03:07:09.677Z,-2.60
2018-11-28T03:09:44.332Z,-2.70
2018-11-28T03:12:19.062Z,-2.70
2018-11-28T03:14:53.693Z,-2.70
2018-11-28T03:17:28.573Z,-2.80
2018-11-28T03:20:03.385Z,-2.80
2018-11-28T03:22:38.265Z,-2.80
2018-11-28T03:25:13.131Z,-2.90
2018-11-28T03:27:48.042Z,-2.80
2018-11-28T03:30:22.933Z,-2.80
2018-11-28T03:32:57.473Z,-2.80
2018-11-28T03:35:32.146Z,-2.80
2018-11-28T03:38:07.040Z,-2.80
2018-11-28T03:40:41.994Z,-2.70
2018-11-28T03:43:16.973Z,-2.80
2018-11-28T03:45:51.737Z,-2.80
2018-11-28T03:48:26.641Z,-2.80
2018-11-28T03:51:01.438Z,-2.80
2018-11-28T03:53:36.265Z,-2.80
2018-11-28T03:56:11.128Z,-2.80
2018-11-28T03:58:46.064Z,-2.80
2018-11-28T04:01:20.842Z,-2.80
2018-11-28T04:03:55.660Z,-2.80
2018-11-28T04:06:30.536Z,-2.80
2018-11-28T04:09:08.117Z,-2.80
2018-11-28T04:11:43.041Z,-2.90
2018-11-28T04:14:17.806Z,-2.90
2018-11-28T04:16:52.845Z,-2.80
2018-11-28T04:19:27.357Z,-2.80
2018-11-28T04:22:02.200Z,-2.70
2018-11-28T04:24:36.675Z,-2.80
2018-11-28T04:27:11.249Z,-2.70
2018-11-28T04:29:45.870Z,-2.70
2018-11-28T04:32:20.689Z,-2.80
2018-11-28T04:34:55.645Z,-2.80
2018-11-28T04:37:30.691Z,-2.90
2018-11-28T04:40:08.294Z,-2.90
2018-11-28T04:42:42.981Z,-2.90
2018-11-28T04:45:21.848Z,-2.80
2018-11-28T04:47:56.706Z,-2.80
2018-11-28T04:50:31.632Z,-2.80
2018-11-28T04:53:07.465Z,-2.70
2018-11-28T04:55:42.237Z,-2.70
2018-11-28T04:58:17.257Z,-2.70
2018-11-28T05:00:52.022Z,-2.60
2018-11-28T05:03:26.747Z,-2.70
2018-11-28T05:06:01.468Z,-2.70
2018-11-28T05:08:36.012Z,-2.70
2018-11-28T05:11:11.012Z,-2.70
2018-11-28T05:13:45.782Z,-2.70
2018-11-28T05:16:20.556Z,-2.70
2018-11-28T05:18:55.447Z,-2.80
2018-11-28T05:21:30.251Z,-2.80
2018-11-28T05:24:05.243Z,-2.80
2018-11-28T05:26:39.768Z,-2.80
2018-11-28T05:29:15.600Z,-2.80
2018-11-28T05:31:50.501Z,-2.80
2018-11-28T05:34:25.530Z,-2.90
2018-11-28T05:37:00.361Z,-2.90
2018-11-28T05:39:35.160Z,-2.90
2018-11-28T05:42:09.890Z,-2.90
2018-11-28T05:44:44.585Z,-3.00
2018-11-28T05:47:19.240Z,-2.90
2018-11-28T05:49:54.044Z,-3.00
2018-11-28T05:52:28.628Z,-3.00
2018-11-28T05:55:03.215Z,-3.10
2018-11-28T05:57:37.929Z,-3.10
2018-11-28T06:00:36.640Z,-3.10
2018-11-28T06:03:13.205Z,-3.20
2018-11-28T06:05:47.929Z,-3.20
2018-11-28T06:08:22.791Z,-3.20
2018-11-28T06:10:57.368Z,-3.20
2018-11-28T06:13:32.024Z,-3.20
2018-11-28T06:16:06.610Z,-3.20
2018-11-28T06:18:41.317Z,-3.20
2018-11-28T06:21:15.944Z,-3.20
2018-11-28T06:23:51.005Z,-3.10
2018-11-28T06:26:26.209Z,-3.10
2018-11-28T06:29:00.996Z,-3.10
2018-11-28T06:31:35.988Z,-3.00
2018-11-28T06:34:10.769Z,-3.10
2018-11-28T06:36:46.092Z,-3.00
2018-11-28T06:39:20.687Z,-3.10
2018-11-28T06:41:55.453Z,-3.10
2018-11-28T06:44:30.375Z,-3.10
2018-11-28T06:47:06.464Z,-3.10
2018-11-28T06:49:41.339Z,-3.10
2018-11-28T06:52:16.003Z,-3.10
2018-11-28T06:54:51.248Z,-3.10
2018-11-28T06:57:26.072Z,-3.10
2018-11-28T07:00:00.780Z,-3.10
2018-11-28T07:02:35.677Z,-3.10
2018-11-28T07:05:11.072Z,-3.10
2018-11-28T07:07:45.936Z,-3.10
2018-11-28T07:10:21.352Z,-3.10
2018-11-28T07:12:56.109Z,-3.10
2018-11-28T07:15:30.685Z,-3.10
2018-11-28T07:18:16.664Z,-3.00
2018-11-28T07:20:51.129Z,-2.90
2018-11-28T07:23:25.603Z,-3.00
2018-11-28T07:26:00.233Z,-3.00
2018-11-28T07:28:34.889Z,-2.90
2018-11-28T07:31:09.605Z,-2.90
2018-11-28T07:33:44.260Z,-2.90
2018-11-28T07:36:18.905Z,-2.70
2018-11-28T07:38:54.205Z,-2.70
2018-11-28T07:41:28.300Z,-2.60
2018-11-28T07:44:02.807Z,-2.60
2018-11-28T07:46:37.608Z,-2.50
2018-11-28T07:49:13.138Z,-2.50
2018-11-28T07:51:47.922Z,-2.40
2018-11-28T07:54:22.687Z,-2.40
2018-11-28T07:56:57.345Z,-2.40
2018-11-28T07:59:32.144Z,-2.30
2018-11-28T08:02:06.591Z,-3.20
2018-11-28T08:04:41.278Z,-2.30
2018-11-28T08:07:16.193Z,-2.20
2018-11-28T08:09:50.968Z,-2.10
2018-11-28T08:12:25.808Z,-2.10
2018-11-28T08:15:00.447Z,-2.10
2018-11-28T08:17:36.301Z,-1.90
2018-11-28T08:20:09.855Z,-1.10
2018-11-28T08:22:44.501Z,0.50
2018-11-28T08:25:19.088Z,1.60
2018-11-28T08:27:53.989Z,2.20
2018-11-28T08:30:28.564Z,2.70
2018-11-28T08:33:03.175Z,3.00
2018-11-28T08:35:37.852Z,3.60
2018-11-28T08:38:12.408Z,3.80
2018-11-28T08:40:46.980Z,4.20
2018-11-28T08:43:21.916Z,3.90
2018-11-28T08:45:56.478Z,3.00
2018-11-28T08:48:31.107Z,2.50
2018-11-28T08:51:05.675Z,2.00
2018-11-28T08:53:40.337Z,1.80
2018-11-28T08:56:14.776Z,1.80
2018-11-28T08:58:49.373Z,1.70
2018-11-28T09:01:24.053Z,1.90
2018-11-28T09:03:58.703Z,2.00
2018-11-28T09:06:33.312Z,1.80
2018-11-28T09:09:08.383Z,2.10
2018-11-28T09:11:42.823Z,2.30
2018-11-28T09:14:17.277Z,2.40
2018-11-28T09:16:51.820Z,2.00
2018-11-28T09:19:27.728Z,2.40
2018-11-28T09:22:02.160Z,2.60
2018-11-28T09:24:36.688Z,2.60
2018-11-28T09:27:12.145Z,2.70
2018-11-28T09:29:46.929Z,2.50
2018-11-28T09:32:21.965Z,1.80
2018-11-28T09:34:56.546Z,1.30
2018-11-28T09:37:31.220Z,1.20
2018-11-28T09:40:18.685Z,1.30
2018-11-28T09:42:55.039Z,1.30
2018-11-28T09:45:29.758Z,1.30
2018-11-28T09:48:04.454Z,1.20
2018-11-28T09:50:39.310Z,1.10
2018-11-28T09:53:14.004Z,1.20
2018-11-28T09:55:48.452Z,1.50
2018-11-28T09:58:22.910Z,1.20
2018-11-28T10:00:57.965Z,1.00
2018-11-28T10:03:32.701Z,1.00
2018-11-28T10:06:07.321Z,1.10
2018-11-28T10:08:42.012Z,1.00
2018-11-28T10:11:16.878Z,1.20
2018-11-28T10:13:52.061Z,1.40
2018-11-28T10:16:27.972Z,1.60
2018-11-28T10:19:02.942Z,1.90
2018-11-28T10:21:37.834Z,2.00
2018-11-28T10:24:12.641Z,2.00
2018-11-28T10:26:47.370Z,2.00
2018-11-28T10:29:22.737Z,2.10
2018-11-28T10:31:58.694Z,2.00
2018-11-28T10:34:33.340Z,2.40
2018-11-28T10:37:08.152Z,3.20
2018-11-28T10:39:42.892Z,4.20
2018-11-28T10:42:17.437Z,4.30
2018-11-28T10:44:52.029Z,3.90
2018-11-28T10:47:26.844Z,3.50
2018-11-28T10:50:01.741Z,3.50
2018-11-28T10:52:37.705Z,3.10
2018-11-28T10:55:16.263Z,3.10
2018-11-28T10:57:51.380Z,3.40
2018-11-28T11:00:33.954Z,4.40
2018-11-28T11:03:13.998Z,3.60
2018-11-28T11:05:54.670Z,3.50
2018-11-28T11:08:34.672Z,3.50
2018-11-28T11:11:14.581Z,3.60
2018-11-28T11:13:54.852Z,3.50
2018-11-28T11:16:31.508Z,3.20
2018-11-28T11:19:06.346Z,2.70
2018-11-28T11:21:41.089Z,2.40
2018-11-28T11:24:15.698Z,2.30
2018-11-28T11:26:50.511Z,2.10
2018-11-28T11:29:25.297Z,2.00
2018-11-28T11:32:00.003Z,2.00
2018-11-28T11:34:34.629Z,1.90
2018-11-28T11:37:09.389Z,2.00
2018-11-28T11:39:44.185Z,2.00
2018-11-28T11:42:18.862Z,2.00
2018-11-28T11:44:53.293Z,2.00
2018-11-28T11:47:28.937Z,2.10
2018-11-28T11:50:03.845Z,2.10
2018-11-28T11:52:38.893Z,2.10
2018-11-28T11:55:16.733Z,2.10
2018-11-28T11:57:51.368Z,2.10
2018-11-28T12:00:26.669Z,2.20
2018-11-28T12:03:07.899Z,2.20
2018-11-28T12:05:58.737Z,2.10
2018-11-28T12:08:33.439Z,1.90
2018-11-28T12:11:08.047Z,1.80
2018-11-28T12:13:43.259Z,1.80
2018-11-28T12:16:21.548Z,1.90
2018-11-28T12:18:52.286Z,1.90
2018-11-28T12:21:27.709Z,1.90
2018-11-28T12:24:02.326Z,1.90
2018-11-28T12:26:37.190Z,1.90
2018-11-28T12:29:11.951Z,1.90
2018-11-28T12:31:47.709Z,1.80
2018-11-28T12:34:22.433Z,1.80
2018-11-28T12:36:57.296Z,1.80
2018-11-28T12:39:31.916Z,1.80
2018-11-28T12:42:06.677Z,1.80
2018-11-28T12:44:41.368Z,1.80
2018-11-28T12:47:16.065Z,1.80
2018-11-28T12:49:50.902Z,1.70
2018-11-28T12:52:26.600Z,1.80
2018-11-28T12:55:01.532Z,1.80
2018-11-28T12:57:37.569Z,1.80
2018-11-28T13:00:13.972Z,1.90
2018-11-28T13:02:49.741Z,2.00
2018-11-28T13:05:25.979Z,2.00
2018-11-28T13:08:00.763Z,2.10
2018-11-28T13:10:36.927Z,2.10
2018-11-28T13:13:11.985Z,2.10
2018-11-28T13:15:46.746Z,2.10
2018-11-28T13:18:22.361Z,2.10
2018-11-28T13:20:57.080Z,2.20
2018-11-28T13:23:32.040Z,2.20
2018-11-28T13:26:06.988Z,2.20
2018-11-28T13:28:41.619Z,2.20
2018-11-28T13:31:16.556Z,2.30
2018-11-28T13:33:51.464Z,2.40
2018-11-28T13:36:27.344Z,2.40
2018-11-28T13:39:02.281Z,2.30
2018-11-28T13:41:37.234Z,2.40
2018-11-28T13:44:12.078Z,2.40
2018-11-28T13:46:46.849Z,2.40
2018-11-28T13:49:21.989Z,2.30
2018-11-28T13:51:56.656Z,2.30
2018-11-28T13:54:31.221Z,2.20
2018-11-28T13:57:07.658Z,2.20
2018-11-28T13:59:40.419Z,2.20
2018-11-28T14:02:14.900Z,2.20
2018-11-28T14:04:49.794Z,2.20
2018-11-28T14:07:25.545Z,2.20
2018-11-28T14:10:00.357Z,2.10
2018-11-28T14:12:34.875Z,2.10
2018-11-28T14:15:18.444Z,2.10
2018-11-28T14:17:58.901Z,2.10
2018-11-28T14:20:34.911Z,2.10
2018-11-28T14:23:09.854Z,2.10
2018-11-28T14:25:44.524Z,2.00
2018-11-28T14:28:18.952Z,2.10
2018-11-28T14:30:53.630Z,2.10
2018-11-28T14:33:31.301Z,2.10
2018-11-28T14:36:06.516Z,4.50
2018-11-28T14:38:41.142Z,2.10
2018-11-28T14:41:15.873Z,2.10
2018-11-28T14:43:50.321Z,2.00
2018-11-28T14:46:25.149Z,1.90
2018-11-28T14:48:59.968Z,1.90
2018-11-28T14:51:34.820Z,1.90
2018-11-28T14:54:10.325Z,1.90
2018-11-28T14:56:51.455Z,1.80
2018-11-28T14:59:26.351Z,1.80
2018-11-28T15:02:01.006Z,1.80
2018-11-28T15:04:35.830Z,1.80
2018-11-28T15:07:11.663Z,1.70
2018-11-28T15:09:53.273Z,1.70
2018-11-28T15:12:30.406Z,1.70
2018-11-28T15:15:06.170Z,1.70
2018-11-28T15:17:41.639Z,1.70
2018-11-28T15:20:16.303Z,1.70
2018-11-28T15:22:52.544Z,1.70
2018-11-28T15:25:26.919Z,1.60
2018-11-28T15:28:02.946Z,1.60
2018-11-28T15:30:37.591Z,1.60
2018-11-28T15:33:12.608Z,1.60
2018-11-28T15:35:47.349Z,1.60
2018-11-28T15:38:22.353Z,1.60
2018-11-28T15:43:37.718Z,1.50
2018-11-28T15:46:15.063Z,1.60
2018-11-28T15:48:48.925Z,1.60
2018-11-28T15:51:24.372Z,1.60
2018-11-28T15:53:59.784Z,1.60
2018-11-28T15:56:34.860Z,1.60
2018-11-28T15:59:13.205Z,1.60
2018-11-28T16:01:48.351Z,1.60
2018-11-28T16:04:23.670Z,1.50
2018-11-28T16:06:58.827Z,1.50
2018-11-28T16:10:43.731Z,1.60
2018-11-28T16:13:18.971Z,1.60
2018-11-28T16:15:54.753Z,1.60
2018-11-28T16:18:30.437Z,1.60
2018-11-28T16:21:05.568Z,2.20
2018-11-28T16:23:40.587Z,1.70
2018-11-28T16:26:16.070Z,1.70
2018-11-28T16:28:50.692Z,1.70
2018-11-28T16:31:26.589Z,1.70
2018-11-28T16:34:01.133Z,1.50
2018-11-28T16:36:36.075Z,1.70
2018-11-28T16:39:10.533Z,1.80
2018-11-28T16:41:45.282Z,1.80
2018-11-28T16:44:20.387Z,1.80
2018-11-28T16:46:54.932Z,1.80
2018-11-28T16:49:30.529Z,1.80
2018-11-28T16:52:05.662Z,1.80
2018-11-28T16:54:41.650Z,1.80
2018-11-28T16:57:17.400Z,1.80
2018-11-28T16:59:52.277Z,1.90
2018-11-28T17:02:27.247Z,1.90
2018-11-28T17:05:02.208Z,1.90
2018-11-28T17:07:37.742Z,1.90
2018-11-28T17:10:14.933Z,2.00
2018-11-28T17:12:50.408Z,2.00
2018-11-28T17:15:25.316Z,2.00
2018-11-28T17:18:00.867Z,2.10
2018-11-28T17:20:36.955Z,2.10
2018-11-28T17:23:11.870Z,2.10
2018-11-28T17:25:46.487Z,2.00
2018-11-28T17:28:21.154Z,2.20
2018-11-28T17:30:56.829Z,2.20
2018-11-28T17:33:31.590Z,2.30
2018-11-28T17:36:06.836Z,2.30
2018-11-28T17:38:42.185Z,2.40
2018-11-28T17:41:19.159Z,2.40
2018-11-28T17:43:53.800Z,2.50
2018-11-28T17:46:29.757Z,2.50
2018-11-28T17:49:06.260Z,2.50
2018-11-28T17:51:39.881Z,2.60
2018-11-28T17:54:15.707Z,2.50
2018-11-28T17:56:50.372Z,2.60
2018-11-28T17:59:25.258Z,2.60
2018-11-28T18:02:00.259Z,2.80
2018-11-28T18:04:34.792Z,2.70
2018-11-28T18:07:09.511Z,2.60
2018-11-28T18:09:45.095Z,2.60
2018-11-28T18:12:20.106Z,2.70
2018-11-28T18:14:55.495Z,2.70
2018-11-28T18:17:30.423Z,2.70
2018-11-28T18:20:04.956Z,2.60
2018-11-28T18:22:39.724Z,2.70
2018-11-28T18:25:14.642Z,2.60
2018-11-28T18:27:49.975Z,2.60
2018-11-28T18:30:24.394Z,2.60
2018-11-28T18:32:59.717Z,2.50
2018-11-28T18:35:34.429Z,3.90
2018-11-28T18:38:09.350Z,2.50
2018-11-28T18:40:44.082Z,2.50
2018-11-28T18:43:18.898Z,2.40
2018-11-28T18:45:54.763Z,2.40
2018-11-28T18:48:30.287Z,2.40
2018-11-28T18:51:05.184Z,2.40
2018-11-28T18:53:39.817Z,2.40
2018-11-28T18:56:14.612Z,2.40
2018-11-28T18:58:50.137Z,2.50
2018-11-28T19:01:24.830Z,2.60
2018-11-28T19:03:59.325Z,2.60
2018-11-28T19:06:33.924Z,2.70
2018-11-28T19:09:13.980Z,2.70
2018-11-28T19:11:51.695Z,2.80
2018-11-28T19:14:30.925Z,2.70
2018-11-28T19:17:09.132Z,2.80
2018-11-28T19:19:56.689Z,2.80
2018-11-28T19:22:31.458Z,2.80
2018-11-28T19:25:08.569Z,2.90
2018-11-28T19:27:43.409Z,2.90
2018-11-28T19:33:02.209Z,2.90
2018-11-28T19:34:39.898Z,3.00
2018-11-28T19:35:37.762Z,3.00
2018-11-28T19:38:13.854Z,3.00
2018-11-28T19:40:54.542Z,3.00
2018-11-28T19:43:29.050Z,3.00
2018-11-28T19:46:03.755Z,3.10
2018-11-28T19:48:38.581Z,3.20
2018-11-28T19:51:13.545Z,3.20
2018-11-28T19:53:48.236Z,3.30
2018-11-28T19:56:23.116Z,3.40
2018-11-28T19:59:03.944Z,3.40
2018-11-28T20:01:38.805Z,3.50
2018-11-28T20:04:13.645Z,3.50
2018-11-28T20:06:49.621Z,3.50
2018-11-28T20:09:24.436Z,3.50
2018-11-28T20:11:59.232Z,3.60
2018-11-28T20:14:37.724Z,3.60
2018-11-28T20:17:13.151Z,3.60
2018-11-28T20:19:48.062Z,3.60
2018-11-28T20:22:22.537Z,3.60
2018-11-28T20:24:58.152Z,3.60
2018-11-28T20:27:32.573Z,3.60
2018-11-28T20:30:18.572Z,3.60
2018-11-28T20:32:53.299Z,3.60
2018-11-28T20:35:29.943Z,3.60
2018-11-28T20:38:04.941Z,3.70
2018-11-28T20:40:39.893Z,3.70
2018-11-28T20:43:15.225Z,3.80
2018-11-28T20:45:49.893Z,3.80
2018-11-28T20:48:24.908Z,3.80
2018-11-28T20:50:59.644Z,3.80
2018-11-28T20:53:34.294Z,3.80
2018-11-28T20:56:11.390Z,3.80
2018-11-28T20:58:46.200Z,3.80
2018-11-28T21:01:20.964Z,3.80
2018-11-28T21:03:55.691Z,3.80
2018-11-28T21:06:30.263Z,3.80
2018-11-28T21:09:09.001Z,3.80
2018-11-28T21:11:43.954Z,3.80
2018-11-28T21:14:18.746Z,3.90
2018-11-28T21:16:57.416Z,3.90
2018-11-28T21:19:32.182Z,3.90
2018-11-28T21:22:06.899Z,3.90
2018-11-28T21:24:41.735Z,3.90
2018-11-28T21:27:16.629Z,3.90
2018-11-28T21:29:52.206Z,3.90
2018-11-28T21:32:26.834Z,4.00
2018-11-28T21:35:01.958Z,3.90
2018-11-28T21:37:36.720Z,3.90
2018-11-28T21:40:11.872Z,4.00
2018-11-28T21:42:46.751Z,3.90
2018-11-28T21:45:22.093Z,4.00
2018-11-28T21:47:56.953Z,3.90
2018-11-28T21:50:31.624Z,4.00
2018-11-28T21:53:08.233Z,4.00
2018-11-28T21:55:43.053Z,4.00
2018-11-28T21:58:17.897Z,4.00
2018-11-28T22:00:52.646Z,4.10
2018-11-28T22:03:27.418Z,4.10
2018-11-28T22:06:02.274Z,4.00
2018-11-28T22:08:36.957Z,4.10
2018-11-28T22:11:11.745Z,4.00
2018-11-28T22:13:46.380Z,4.00
2018-11-28T22:16:21.277Z,4.10
2018-11-28T22:19:23.475Z,4.10
2018-11-28T22:26:23.299Z,4.10
2018-11-28T22:29:22.217Z,3.90
2018-11-28T22:32:02.266Z,3.90
2018-11-28T22:34:36.846Z,3.90
2018-11-28T22:37:11.321Z,3.90
2018-11-28T22:39:45.900Z,3.90
2018-11-28T22:42:22.826Z,3.90
2018-11-28T22:44:58.680Z,3.90
2018-11-28T22:47:32.690Z,3.80
2018-11-28T22:50:08.464Z,3.80
2018-11-28T22:52:43.345Z,3.80
2018-11-28T22:55:18.480Z,3.80
2018-11-28T22:57:53.272Z,3.70
2018-11-28T23:00:33.527Z,3.70
2018-11-28T23:03:09.475Z,3.70
2018-11-28T23:05:45.476Z,3.60
2018-11-28T23:08:21.304Z,3.60
2018-11-28T23:10:56.091Z,3.50
2018-11-28T23:13:30.736Z,3.50
2018-11-28T23:16:06.528Z,3.50
2018-11-28T23:18:41.402Z,3.50
2018-11-28T23:21:16.028Z,3.60
2018-11-28T23:23:51.000Z,3.60
2018-11-28T23:26:25.753Z,3.70
2018-11-28T23:29:00.668Z,3.80
2018-11-28T23:31:35.580Z,3.80
2018-11-28T23:34:10.706Z,3.90
2018-11-28T23:36:45.635Z,3.90
2018-11-28T23:39:20.553Z,4.00
2018-11-28T23:41:55.316Z,4.00
2018-11-28T23:44:30.150Z,4.10
2018-11-28T23:47:05.131Z,4.10
2018-11-28T23:49:39.430Z,4.10
2018-11-28T23:52:14.174Z,4.10
2018-11-28T23:54:48.928Z,4.10
2018-11-28T23:57:23.672Z,4.10
2018-11-28T23:59:58.382Z,4.10
